Tamiment, Pennsylvania
Current Conditions -  °F | °C
As of 1:09 AM on Wednesday 22 Oct 2014 (Local Time) from KMPO Reporting Station
Overcast Overcast  
Wind Chill: 50°   Ceiling: 700
Heat Index: 50°   Visibility: 10mi
Dew Point: 47°   Wind: 7mph
Humidity: 89%   Direction: 40°NE
Pressure: 29.92"   Gusts: NA
Location:  41.14°N, 75.03°W
Report Text: KMPO 220509Z AUTO 04006KT 10SM BKN007 OVC017 10/08 A2992 RMK AO2 T01000083 TSNO PNO $
Loading
Personal Weather Stations






























Interactive Weather Map
Tropical Storm Tracking
New forecast layout! Learn more

10-Day Weather Forecast

Advertisements
Track Severe Weather on mobile